Terminal Aerodrome Forecast
Issued by NWS

Home | Current Version | Previous Version | Text Only | Print | Product List | Glossary On
Versions: 1 2 3 4 5 6 7 8 9 10 11 12 13 14 15 16 17 18 19 20 21 22 23 24 25 26 27 28 29 30
000
FTUS41 KGYX 300500
TAFLEB
TAF
KLEB 300529Z 3006/3106 VRB03KT 3SM BR SCT001 BKN080
      TEMPO 3007/3011 1/2SM FG BKN001
     FM301300 VRB03KT P6SM SCT015 BKN050
     FM301500 18005KT P6SM VCSH BKN050
     FM310000 18003KT P6SM BKN250=

USA.gov is the U.S. government's official web portal to all federal, state and local government web resources and services.